Ken Orchid — A8VZ2 — position and weather

sailwx.info

Track history (hours):
 
Tides and Currents Weather Stations Pressure Air Temp Water Temp Dewpoint Dewpoint Depression Visibility Wind Speed Wind Dir Waves Ship Positions

Ken Orchid

Last reported at 2016-Jan-26 00:33 UTC. Time now 2016-Feb-14 18:57 UTC.
Position N 02°02' E 102°11'.
Warning: this ship's position is 19 days out of date.

Length 169 m; draft 7.7 m.

Type: Ship. MMSI: 636014693.

Date/timePositionNaut miles runAvg speedWind from/ knotsBaromVisibWave heightAir tempDewpointWater temp
2016-Jan-26 00:33N 02°02' E 102°11'1312.7
2016-Jan-25 23:33N 01°55' E 102°22'1413.9
2016-Jan-25 22:33N 01°49' E 102°34'7514.5
2016-Jan-25 17:23N 01°11' E 103°39'1011.6
2016-Jan-25 16:33N 01°11' E 103°49'6 5.9
2016-Jan-25 15:33N 01°15' E 103°53'0 0.1
2016-Jan-25 14:32N 01°15' E 103°53'0 0.0
2016-Jan-25 13:32N 01°15' E 103°53'0 0.0
2016-Jan-25 12:32N 01°15' E 103°53'0 0.0
2016-Jan-25 11:32N 01°15' E 103°53'0 0.0
2016-Jan-25 10:32N 01°15' E 103°53'0 0.0
2016-Jan-25 09:32N 01°15' E 103°53'0 0.1
2016-Jan-25 08:32N 01°15' E 103°53'0 0.1
2016-Jan-25 07:32N 01°15' E 103°53'0 0.1
2016-Jan-25 06:29N 01°15' E 103°53'0 0.1
2016-Jan-25 05:32N 01°15' E 103°53'0 0.0
2016-Jan-25 04:32N 01°15' E 103°53'0 0.0
2016-Jan-25 03:32N 01°15' E 103°53'0 0.0
2016-Jan-25 02:32N 01°15' E 103°53'0 0.0
2016-Jan-25 01:29N 01°15' E 103°53'2 2.1
2016-Jan-25 00:33N 01°13' E 103°54'4 4.3
2016-Jan-24 23:31N 01°15' E 103°58'7 6.9
2016-Jan-24 22:33N 01°16' E 104°05'  
2016-Jan-20 05:33N 22°28' E 119°50'1414.2
2016-Jan-20 04:33N 22°42' E 119°52'52512.1
2016-Jan-18 09:05N 31°16' E 121°52'711.3
2016-Jan-18 08:29N 31°19' E 121°45'1010.7
2016-Jan-18 07:33N 31°23' E 121°35'9 8.8
2016-Jan-18 06:33N 31°29' E 121°27'1312.5
2016-Jan-18 05:33N 31°37' E 121°16'1414.4
2016-Jan-18 04:34N 31°46' E 121°02'1212.0
2016-Jan-18 03:34N 31°55' E 120°53'1111.0
2016-Jan-18 02:33N 32°00' E 120°41'1010.5
2016-Jan-18 01:34N 32°04' E 120°30'1512.0
2016-Jan-18 00:16N 31°56' E 120°15'911.7
2016-Jan-17 23:28N 31°57' E 120°04'  
Track history (hours):
 
Tides and Currents Weather Stations Pressure Air Temp Water Temp Dewpoint Dewpoint Depression Visibility Wind Speed Wind Dir Waves Ship Positions

Ken Orchid

Last reported at 2016-Jan-26 00:33 UTC. Time now 2016-Feb-14 18:57 UTC.
Position N 02°02' E 102°11'.
Warning: this ship's position is 19 days out of date.

Length 169 m; draft 7.7 m.

Type: Ship. MMSI: 636014693.

Date/timePositionNaut miles runAvg speedWind from/ knotsBaromVisibWave heightAir tempDewpointWater temp
2016-Jan-26 00:33N 02°02' E 102°11'1312.7
2016-Jan-25 23:33N 01°55' E 102°22'1413.9
2016-Jan-25 22:33N 01°49' E 102°34'7514.5
2016-Jan-25 17:23N 01°11' E 103°39'1011.6
2016-Jan-25 16:33N 01°11' E 103°49'6 5.9
2016-Jan-25 15:33N 01°15' E 103°53'0 0.1
2016-Jan-25 14:32N 01°15' E 103°53'0 0.0
2016-Jan-25 13:32N 01°15' E 103°53'0 0.0
2016-Jan-25 12:32N 01°15' E 103°53'0 0.0
2016-Jan-25 11:32N 01°15' E 103°53'0 0.0
2016-Jan-25 10:32N 01°15' E 103°53'0 0.0
2016-Jan-25 09:32N 01°15' E 103°53'0 0.1
2016-Jan-25 08:32N 01°15' E 103°53'0 0.1
2016-Jan-25 07:32N 01°15' E 103°53'0 0.1
2016-Jan-25 06:29N 01°15' E 103°53'0 0.1
2016-Jan-25 05:32N 01°15' E 103°53'0 0.0
2016-Jan-25 04:32N 01°15' E 103°53'0 0.0
2016-Jan-25 03:32N 01°15' E 103°53'0 0.0
2016-Jan-25 02:32N 01°15' E 103°53'0 0.0
2016-Jan-25 01:29N 01°15' E 103°53'2 2.1
2016-Jan-25 00:33N 01°13' E 103°54'4 4.3
2016-Jan-24 23:31N 01°15' E 103°58'7 6.9
2016-Jan-24 22:33N 01°16' E 104°05'  
2016-Jan-20 05:33N 22°28' E 119°50'1414.2
2016-Jan-20 04:33N 22°42' E 119°52'52512.1
2016-Jan-18 09:05N 31°16' E 121°52'711.3
2016-Jan-18 08:29N 31°19' E 121°45'1010.7
2016-Jan-18 07:33N 31°23' E 121°35'9 8.8
2016-Jan-18 06:33N 31°29' E 121°27'1312.5
2016-Jan-18 05:33N 31°37' E 121°16'1414.4
2016-Jan-18 04:34N 31°46' E 121°02'1212.0
2016-Jan-18 03:34N 31°55' E 120°53'1111.0
2016-Jan-18 02:33N 32°00' E 120°41'1010.5
2016-Jan-18 01:34N 32°04' E 120°30'1512.0
2016-Jan-18 00:16N 31°56' E 120°15'911.7
2016-Jan-17 23:28N 31°57' E 120°04'  

Dump ship's entire track history